createdAt,value
2022-08-07T00:01:43.574Z,36.23
2022-08-07T00:04:17.142Z,36.33
2022-08-07T00:06:52.994Z,36.72
2022-08-07T00:09:29.159Z,36.37
2022-08-07T00:12:03.917Z,36.51
2022-08-07T00:14:33.139Z,36.75
2022-08-07T00:17:03.215Z,37.11
2022-08-07T00:20:03.101Z,37.28
2022-08-07T00:22:24.680Z,37.46
2022-08-07T00:25:06.996Z,38.32
2022-08-07T00:27:52.566Z,38.19
2022-08-07T00:30:27.969Z,38.62
2022-08-07T00:32:58.236Z,39.20
2022-08-07T00:35:29.917Z,39.04
2022-08-07T00:37:59.596Z,39.68
2022-08-07T00:40:39.940Z,40.02
2022-08-07T00:44:00.471Z,39.66
2022-08-07T00:46:01.731Z,39.71
2022-08-07T00:48:32.619Z,40.40
2022-08-07T00:51:03.631Z,40.37
2022-08-07T00:53:38.409Z,40.81
2022-08-07T00:56:15.572Z,41.75
2022-08-07T00:58:46.729Z,40.92
2022-08-07T01:01:16.253Z,41.29
2022-08-07T01:03:55.484Z,41.30
2022-08-07T01:06:31.736Z,41.80
2022-08-07T01:09:01.671Z,41.63
2022-08-07T01:12:09.226Z,41.38
2022-08-07T01:14:28.457Z,41.39
2022-08-07T01:16:58.550Z,41.26
2022-08-07T01:19:32.327Z,41.45
2022-08-07T01:22:03.496Z,41.79
2022-08-07T01:24:42.234Z,41.36
2022-08-07T01:27:19.414Z,41.57
2022-08-07T01:29:50.765Z,41.77
2022-08-07T01:32:22.586Z,41.70
2022-08-07T01:34:55.162Z,41.99
2022-08-07T01:37:26.109Z,41.93
2022-08-07T01:40:02.200Z,41.94
2022-08-07T01:42:39.922Z,42.00
2022-08-07T01:45:26.623Z,41.70
2022-08-07T01:48:30.292Z,42.38
2022-08-07T01:50:58.942Z,42.38
2022-08-07T01:54:00.720Z,41.93
2022-08-07T01:56:29.002Z,41.94
2022-08-07T01:59:15.682Z,42.02
2022-08-07T02:02:02.343Z,42.05
2022-08-07T02:04:52.660Z,42.24
2022-08-07T02:07:36.157Z,42.65
2022-08-07T02:10:26.766Z,42.85
2022-08-07T02:13:00.266Z,43.12
2022-08-07T02:15:37.694Z,43.21
2022-08-07T02:18:07.666Z,43.19
2022-08-07T02:20:38.106Z,43.41
2022-08-07T02:23:11.714Z,43.63
2022-08-07T02:26:30.460Z,44.27
2022-08-07T02:28:34.605Z,43.99
2022-08-07T02:31:18.535Z,43.60
2022-08-07T02:34:03.446Z,44.04
2022-08-07T02:36:34.832Z,44.16
2022-08-07T02:39:42.939Z,44.17
2022-08-07T02:42:10.189Z,44.25
2022-08-07T02:44:48.235Z,44.53
2022-08-07T02:47:23.695Z,44.58
2022-08-07T02:50:00.224Z,45.09
2022-08-07T02:52:38.639Z,45.05
2022-08-07T02:55:15.432Z,45.38
2022-08-07T02:58:05.064Z,45.41
2022-08-07T03:00:36.131Z,45.59
2022-08-07T03:03:13.531Z,46.42
2022-08-07T03:05:45.840Z,46.25
2022-08-07T03:08:19.227Z,46.45
2022-08-07T03:10:58.198Z,46.77
2022-08-07T03:13:38.690Z,46.36
2022-08-07T03:16:10.113Z,47.18
2022-08-07T03:18:44.137Z,47.10
2022-08-07T03:21:13.483Z,47.29
2022-08-07T03:24:20.116Z,47.37
2022-08-07T03:26:50.915Z,47.26
2022-08-07T03:29:23.987Z,47.74
2022-08-07T03:31:57.931Z,47.74
2022-08-07T03:34:29.679Z,47.56
2022-08-07T03:37:11.891Z,47.22
2022-08-07T03:39:59.070Z,47.67
2022-08-07T03:42:30.175Z,47.99
2022-08-07T03:45:01.366Z,48.27
2022-08-07T03:47:47.966Z,48.22
2022-08-07T03:50:23.146Z,48.43
2022-08-07T03:52:54.066Z,48.44
2022-08-07T03:55:24.013Z,48.09
2022-08-07T03:59:09.711Z,48.47
2022-08-07T04:01:07.500Z,48.99
2022-08-07T04:03:53.320Z,49.21
2022-08-07T04:06:38.089Z,49.24
2022-08-07T04:09:16.182Z,49.41
2022-08-07T04:12:26.431Z,49.26
2022-08-07T04:14:43.828Z,49.76
2022-08-07T04:17:20.946Z,49.87
2022-08-07T04:19:54.678Z,49.89
2022-08-07T04:22:28.983Z,50.07
2022-08-07T04:25:02.089Z,50.16
2022-08-07T04:27:36.337Z,50.34
2022-08-07T04:30:21.593Z,50.39
2022-08-07T04:33:14.033Z,50.40
2022-08-07T04:35:51.289Z,50.76
2022-08-07T04:38:27.590Z,50.76
2022-08-07T04:40:58.347Z,50.90
2022-08-07T04:44:11.807Z,50.96
2022-08-07T04:46:51.318Z,50.69
2022-08-07T04:49:40.937Z,50.94
2022-08-07T04:52:25.171Z,50.83
2022-08-07T04:55:01.554Z,50.80
2022-08-07T04:58:09.704Z,50.86
2022-08-07T05:00:52.921Z,50.75
2022-08-07T05:03:38.923Z,50.94
2022-08-07T05:06:28.105Z,51.32
2022-08-07T05:09:04.491Z,51.22
2022-08-07T05:11:57.034Z,51.33
2022-08-07T05:14:52.111Z,51.81
2022-08-07T05:17:52.018Z,51.54
2022-08-07T05:20:21.408Z,51.41
2022-08-07T05:22:58.185Z,51.22
2022-08-07T05:26:10.319Z,51.61
2022-08-07T05:28:22.687Z,51.88
2022-08-07T05:30:55.899Z,52.21
2022-08-07T05:33:29.684Z,52.24
2022-08-07T05:36:00.240Z,52.40
2022-08-07T05:39:00.442Z,52.70
2022-08-07T05:41:21.845Z,53.01
2022-08-07T05:44:08.326Z,53.37
2022-08-07T05:46:43.531Z,53.65
2022-08-07T05:49:14.459Z,53.54
2022-08-07T05:51:48.181Z,53.76
2022-08-07T05:54:31.260Z,53.66
2022-08-07T05:57:13.684Z,54.32
2022-08-07T05:59:57.301Z,55.59
2022-08-07T06:02:33.968Z,54.76
2022-08-07T06:05:15.749Z,54.69
2022-08-07T06:08:29.750Z,55.20
2022-08-07T06:10:40.329Z,55.44
2022-08-07T06:13:13.633Z,55.23
2022-08-07T06:15:45.389Z,55.51
2022-08-07T06:18:22.190Z,55.14
2022-08-07T06:22:15.897Z,55.73
2022-08-07T06:24:38.095Z,55.54
2022-08-07T06:26:35.896Z,55.75
2022-08-07T06:29:07.433Z,56.70
2022-08-07T06:31:46.714Z,56.65
2022-08-07T06:34:20.754Z,56.53
2022-08-07T06:36:51.867Z,56.55
2022-08-07T06:40:13.336Z,56.66
2022-08-07T06:42:19.190Z,57.28
2022-08-07T06:45:18.785Z,57.58
2022-08-07T06:47:58.445Z,57.77
2022-08-07T06:50:35.943Z,57.89
2022-08-07T06:53:18.615Z,57.60
2022-08-07T06:56:01.414Z,57.89
2022-08-07T06:58:38.483Z,58.27
2022-08-07T07:01:14.149Z,58.54
2022-08-07T07:03:49.980Z,58.38
2022-08-07T07:06:26.357Z,58.15
2022-08-07T07:08:56.823Z,58.67
2022-08-07T07:12:07.515Z,57.65
2022-08-07T07:14:19.354Z,57.85
2022-08-07T07:16:54.792Z,57.89
2022-08-07T07:19:57.522Z,58.13
2022-08-07T07:22:40.025Z,57.77
2022-08-07T07:26:31.358Z,56.84
2022-08-07T07:28:42.685Z,57.19
2022-08-07T07:31:05.844Z,56.49
2022-08-07T07:33:37.315Z,55.63
2022-08-07T07:36:13.311Z,55.60
2022-08-07T07:38:46.183Z,54.89
2022-08-07T07:41:19.073Z,55.36
2022-08-07T07:44:17.983Z,55.33
2022-08-07T07:46:56.031Z,55.03
2022-08-07T07:50:34.645Z,54.88
2022-08-07T07:52:22.329Z,51.58
2022-08-07T07:54:52.861Z,51.44
2022-08-07T07:57:50.318Z,51.30
2022-08-07T08:00:21.100Z,50.74
2022-08-07T08:03:07.942Z,49.86
2022-08-07T08:05:54.252Z,49.61
2022-08-07T08:08:34.983Z,50.05
2022-08-07T08:11:08.143Z,48.96
2022-08-07T08:13:43.802Z,48.43
2022-08-07T08:16:29.866Z,48.64
2022-08-07T08:19:17.919Z,47.52
2022-08-07T08:22:09.779Z,47.85
2022-08-07T08:25:18.944Z,46.60
2022-08-07T08:27:56.192Z,47.16
2022-08-07T08:30:27.585Z,47.28
2022-08-07T08:33:01.660Z,47.10
2022-08-07T08:35:39.645Z,47.12
2022-08-07T08:38:19.651Z,46.03
2022-08-07T08:40:55.744Z,45.29
2022-08-07T08:43:42.413Z,44.52
2022-08-07T08:46:20.475Z,42.58
2022-08-07T08:48:59.694Z,42.83
2022-08-07T08:51:49.602Z,41.86
2022-08-07T08:54:31.535Z,41.05
2022-08-07T08:57:08.534Z,41.35
2022-08-07T08:59:54.179Z,42.15
2022-08-07T09:02:38.392Z,41.42
2022-08-07T09:05:37.743Z,41.78
2022-08-07T09:08:28.613Z,40.97
2022-08-07T09:11:14.067Z,40.95
2022-08-07T09:14:12.908Z,40.15
2022-08-07T09:16:58.944Z,40.84
2022-08-07T09:19:52.654Z,38.78
2022-08-07T09:24:30.560Z,39.35
2022-08-07T09:25:54.435Z,36.79
2022-08-07T09:30:04.644Z,37.64
2022-08-07T09:31:38.612Z,37.17
2022-08-07T09:34:16.180Z,37.21
2022-08-07T09:36:55.125Z,37.11
2022-08-07T09:39:54.730Z,36.75
2022-08-07T09:42:45.517Z,35.80
2022-08-07T09:47:51.947Z,36.40
2022-08-07T09:48:43.938Z,36.83
2022-08-07T09:52:10.428Z,36.80
2022-08-07T09:54:42.371Z,35.79
2022-08-07T09:57:38.018Z,35.07
2022-08-07T10:00:18.778Z,35.07
2022-08-07T10:04:05.164Z,35.43
2022-08-07T10:06:55.631Z,35.70
2022-08-07T10:10:00.587Z,35.45
2022-08-07T10:13:29.849Z,35.03
2022-08-07T10:16:36.500Z,34.33
2022-08-07T10:19:23.421Z,34.18
2022-08-07T10:22:16.393Z,34.45
2022-08-07T10:25:09.010Z,33.98
2022-08-07T10:28:03.315Z,33.12
2022-08-07T10:30:51.629Z,33.57
2022-08-07T10:34:05.932Z,33.70
2022-08-07T10:36:53.761Z,32.93
2022-08-07T10:39:41.688Z,33.50
2022-08-07T10:42:38.507Z,33.36
2022-08-07T10:45:27.566Z,33.42
2022-08-07T10:48:36.332Z,32.53
2022-08-07T10:51:16.942Z,33.18
2022-08-07T10:54:14.385Z,33.04
2022-08-07T10:56:58.290Z,32.61
2022-08-07T10:59:47.212Z,32.81
2022-08-07T11:02:33.444Z,33.92
2022-08-07T11:05:17.643Z,32.36
2022-08-07T11:08:01.087Z,31.83
2022-08-07T11:10:40.864Z,33.09
2022-08-07T11:14:45.308Z,33.61
2022-08-07T11:16:19.682Z,33.80
2022-08-07T11:18:53.052Z,33.44
2022-08-07T11:21:40.744Z,31.85
2022-08-07T11:24:21.976Z,33.16
2022-08-07T11:26:57.066Z,33.44
2022-08-07T11:29:43.574Z,32.88
2022-08-07T11:32:25.562Z,32.80
2022-08-07T11:34:59.841Z,33.00
2022-08-07T11:37:57.806Z,32.29
2022-08-07T11:40:50.559Z,32.06
2022-08-07T11:43:41.318Z,32.89
2022-08-07T11:46:38.067Z,32.40
2022-08-07T11:50:30.062Z,32.45
2022-08-07T11:52:43.811Z,32.94
2022-08-07T11:56:25.418Z,32.65
2022-08-07T11:58:42.710Z,31.53
2022-08-07T12:01:58.682Z,32.07
2022-08-07T12:04:47.484Z,32.04
2022-08-07T12:07:27.621Z,32.53
2022-08-07T12:10:18.892Z,30.71
2022-08-07T12:12:58.505Z,30.77
2022-08-07T12:15:45.964Z,30.73
2022-08-07T12:18:29.509Z,30.17
2022-08-07T12:21:15.045Z,30.50
2022-08-07T12:24:06.905Z,30.32
2022-08-07T12:26:49.421Z,30.76
2022-08-07T12:29:37.594Z,29.69
2022-08-07T12:32:16.925Z,29.19
2022-08-07T12:34:49.658Z,30.23
2022-08-07T12:37:28.535Z,29.71
2022-08-07T12:40:46.273Z,29.34
2022-08-07T12:44:02.159Z,29.13
2022-08-07T12:46:26.502Z,29.03
2022-08-07T12:49:39.367Z,28.55
2022-08-07T12:52:14.202Z,30.17
2022-08-07T12:54:59.034Z,28.67
2022-08-07T12:57:39.101Z,28.14
2022-08-07T13:00:41.632Z,27.22
2022-08-07T13:04:05.520Z,26.90
2022-08-07T13:07:00.869Z,27.45
2022-08-07T13:10:37.992Z,27.69
2022-08-07T13:12:56.128Z,27.66
2022-08-07T13:15:38.704Z,27.11
2022-08-07T13:18:28.663Z,27.13
2022-08-07T13:21:05.534Z,26.47
2022-08-07T13:24:01.163Z,25.97
2022-08-07T13:26:41.860Z,25.40
2022-08-07T13:29:22.259Z,26.17
2022-08-07T13:31:59.951Z,25.35
2022-08-07T13:34:48.601Z,24.59
2022-08-07T13:37:30.190Z,24.51
2022-08-07T13:40:41.779Z,24.72
2022-08-07T13:43:05.826Z,23.67
2022-08-07T13:46:11.832Z,23.12
2022-08-07T13:48:38.937Z,23.63
2022-08-07T13:51:27.123Z,23.88
2022-08-07T13:54:03.263Z,23.14
2022-08-07T13:56:41.159Z,22.86
2022-08-07T13:59:27.275Z,22.24
2022-08-07T14:02:05.255Z,22.34
2022-08-07T14:04:49.634Z,22.27
2022-08-07T14:07:23.544Z,22.47
2022-08-07T14:10:02.332Z,22.46
2022-08-07T14:12:54.810Z,21.91
2022-08-07T14:15:35.275Z,21.52
2022-08-07T14:18:27.444Z,21.64
2022-08-07T14:21:08.157Z,20.79
2022-08-07T14:24:01.685Z,21.30
2022-08-07T14:26:39.004Z,21.13
2022-08-07T14:30:08.175Z,21.00
2022-08-07T14:32:07.839Z,20.40
2022-08-07T14:34:46.064Z,20.14
2022-08-07T14:37:19.398Z,19.76
2022-08-07T14:40:17.848Z,19.94
2022-08-07T14:43:01.373Z,20.40
2022-08-07T14:45:47.071Z,20.23
2022-08-07T14:48:22.223Z,20.11
2022-08-07T14:51:00.301Z,20.10
2022-08-07T14:54:05.907Z,19.77
2022-08-07T14:56:29.803Z,20.79
2022-08-07T15:01:53.978Z,19.75
2022-08-07T15:04:28.943Z,19.44
2022-08-07T15:06:58.367Z,20.24
2022-08-07T15:09:57.515Z,19.20
2022-08-07T15:12:30.520Z,18.88
2022-08-07T15:15:09.253Z,18.95
2022-08-07T15:17:58.914Z,19.38
2022-08-07T15:30:09.277Z,18.77
2022-08-07T15:32:12.534Z,18.53
2022-08-07T15:43:52.882Z,18.55
2022-08-07T15:52:03.038Z,20.89
2022-08-07T15:54:39.613Z,20.18
2022-08-07T15:57:39.833Z,20.40
2022-08-07T16:00:07.042Z,19.81
2022-08-07T16:02:46.957Z,20.35
2022-08-07T16:05:20.121Z,20.30
2022-08-07T16:08:33.090Z,21.50
2022-08-07T16:10:48.618Z,19.83
2022-08-07T16:13:59.695Z,19.09
2022-08-07T16:16:51.489Z,19.70
2022-08-07T16:19:59.535Z,19.23
2022-08-07T16:22:57.447Z,18.61
2022-08-07T16:25:56.307Z,19.35
2022-08-07T16:30:06.925Z,19.28
2022-08-07T16:31:50.797Z,19.14
2022-08-07T16:34:38.277Z,19.44
2022-08-07T16:38:05.673Z,19.21
2022-08-07T16:41:23.061Z,19.16
2022-08-07T16:45:14.328Z,19.28
2022-08-07T16:47:59.947Z,18.33
2022-08-07T16:51:20.748Z,18.09
2022-08-07T16:54:06.217Z,17.84
2022-08-07T16:56:53.263Z,18.18
2022-08-07T16:59:45.701Z,17.56
2022-08-07T17:03:04.856Z,17.86
2022-08-07T17:06:01.689Z,17.90
2022-08-07T17:09:10.775Z,17.19
2022-08-07T17:12:04.892Z,17.97
2022-08-07T17:14:36.882Z,17.82
2022-08-07T17:17:19.044Z,17.75
2022-08-07T17:20:03.020Z,17.56
2022-08-07T17:22:38.562Z,17.97
2022-08-07T17:25:19.997Z,17.78
2022-08-07T17:28:19.371Z,17.73
2022-08-07T17:30:59.428Z,18.06
2022-08-07T17:34:10.083Z,18.17
2022-08-07T17:36:28.293Z,17.75
2022-08-07T17:39:10.629Z,17.44
2022-08-07T17:42:02.295Z,17.94
2022-08-07T17:44:54.555Z,17.48
2022-08-07T17:47:41.754Z,17.74
2022-08-07T17:50:19.982Z,17.82
2022-08-07T17:52:59.761Z,17.93
2022-08-07T17:56:00.054Z,17.92
2022-08-07T17:58:33.078Z,17.95
2022-08-07T18:01:21.004Z,17.29
2022-08-07T18:04:16.498Z,17.21
2022-08-07T18:06:58.175Z,17.72
2022-08-07T18:10:05.612Z,17.88
2022-08-07T18:12:52.841Z,17.23
2022-08-07T18:15:32.843Z,17.75
2022-08-07T18:18:47.686Z,17.95
2022-08-07T18:21:37.232Z,18.20
2022-08-07T18:24:07.092Z,18.51
2022-08-07T18:27:18.540Z,18.85
2022-08-07T18:30:30.816Z,18.72
2022-08-07T18:33:54.983Z,19.49
2022-08-07T18:36:41.201Z,22.76
2022-08-07T18:40:08.480Z,21.21
2022-08-07T18:42:27.650Z,20.11
2022-08-07T18:45:40.320Z,20.02
2022-08-07T18:48:10.010Z,19.97
2022-08-07T18:51:07.126Z,21.58
2022-08-07T18:54:27.868Z,22.91
2022-08-07T18:57:30.480Z,23.20
2022-08-07T19:00:34.633Z,25.17
2022-08-07T19:03:12.518Z,25.56
2022-08-07T19:06:03.613Z,24.40
2022-08-07T19:08:46.732Z,25.09
2022-08-07T19:11:35.107Z,26.52
2022-08-07T19:14:19.863Z,26.47
2022-08-07T19:17:05.891Z,26.85
2022-08-07T19:19:53.239Z,26.65
2022-08-07T19:22:30.939Z,26.82
2022-08-07T19:25:06.544Z,27.75
2022-08-07T19:28:58.534Z,29.22
2022-08-07T19:31:05.608Z,27.20
2022-08-07T19:33:34.600Z,26.97
2022-08-07T19:36:05.584Z,28.67
2022-08-07T19:38:53.007Z,30.64
2022-08-07T19:41:44.328Z,28.92
2022-08-07T19:44:21.947Z,28.32
2022-08-07T19:47:01.794Z,29.93
2022-08-07T19:49:58.453Z,30.02
2022-08-07T19:52:28.766Z,30.12
2022-08-07T19:54:58.378Z,29.61
2022-08-07T19:58:00.291Z,30.63
2022-08-07T20:00:28.545Z,28.32
2022-08-07T20:03:04.007Z,31.22
2022-08-07T20:06:00.060Z,28.70
2022-08-07T20:08:30.147Z,30.79
2022-08-07T20:11:04.030Z,29.06
2022-08-07T20:13:44.754Z,29.18
2022-08-07T20:16:34.911Z,30.85
2022-08-07T20:19:10.508Z,30.73
2022-08-07T20:21:47.627Z,31.86
2022-08-07T20:24:24.215Z,30.31
2022-08-07T20:27:02.420Z,29.85
2022-08-07T20:29:49.464Z,29.61
2022-08-07T20:32:38.958Z,29.50
2022-08-07T20:35:16.290Z,30.76
2022-08-07T20:37:57.709Z,30.20
2022-08-07T20:40:34.341Z,31.48
2022-08-07T20:43:14.406Z,31.09
2022-08-07T20:46:29.108Z,30.54
2022-08-07T20:48:38.453Z,30.83
2022-08-07T20:51:26.665Z,30.70
2022-08-07T20:54:08.723Z,30.08
2022-08-07T20:56:45.961Z,30.76
2022-08-07T21:00:04.351Z,31.06
2022-08-07T21:02:38.365Z,30.56
2022-08-07T21:05:16.384Z,30.30
2022-08-07T21:07:49.742Z,31.82
2022-08-07T21:10:31.317Z,31.38
2022-08-07T21:13:04.569Z,32.99
2022-08-07T21:15:47.805Z,32.45
2022-08-07T21:18:33.247Z,32.21
2022-08-07T21:21:03.901Z,33.14
2022-08-07T21:23:50.232Z,31.82
2022-08-07T21:26:43.079Z,32.07
2022-08-07T21:29:19.398Z,31.22
2022-08-07T21:32:43.808Z,32.01
2022-08-07T21:34:58.295Z,31.92
2022-08-07T21:37:58.537Z,32.80
2022-08-07T21:40:35.969Z,32.30
2022-08-07T21:43:11.288Z,33.71
2022-08-07T21:46:07.925Z,32.36
2022-08-07T21:48:44.072Z,34.43
2022-08-07T21:51:51.889Z,32.75
2022-08-07T21:54:37.417Z,32.24
2022-08-07T21:57:39.426Z,32.47
2022-08-07T22:00:23.067Z,32.66
2022-08-07T22:03:03.371Z,32.27
2022-08-07T22:05:49.791Z,31.95
2022-08-07T22:08:23.251Z,32.10
2022-08-07T22:10:59.953Z,32.64
2022-08-07T22:13:52.395Z,32.94
2022-08-07T22:16:44.258Z,33.31
2022-08-07T22:19:23.514Z,33.62
2022-08-07T22:22:27.978Z,34.18
2022-08-07T22:25:07.695Z,33.61
2022-08-07T22:28:29.925Z,34.74
2022-08-07T22:30:41.526Z,34.20
2022-08-07T22:33:15.262Z,34.28
2022-08-07T22:35:49.998Z,33.65
2022-08-07T22:38:26.624Z,33.49
2022-08-07T22:41:02.891Z,34.02
2022-08-07T22:43:37.939Z,33.59
2022-08-07T22:47:17.077Z,34.00
2022-08-07T22:51:03.754Z,34.72
2022-08-07T22:54:07.528Z,34.62
2022-08-07T22:56:55.453Z,34.40
2022-08-07T22:59:53.442Z,34.69
2022-08-07T23:02:33.203Z,34.75
2022-08-07T23:06:10.342Z,34.97
2022-08-07T23:08:59.590Z,34.89
2022-08-07T23:12:03.202Z,34.89
2022-08-07T23:14:41.707Z,34.66
2022-08-07T23:17:45.772Z,34.16
2022-08-07T23:20:51.900Z,34.25
2022-08-07T23:24:17.004Z,35.21
2022-08-07T23:27:17.877Z,34.92
2022-08-07T23:30:36.284Z,35.05
2022-08-07T23:34:35.500Z,36.27
2022-08-07T23:36:38.042Z,36.06
2022-08-07T23:39:22.031Z,36.22
2022-08-07T23:42:15.672Z,36.37
2022-08-07T23:45:33.143Z,36.46
2022-08-07T23:48:35.026Z,36.56
2022-08-07T23:52:53.436Z,37.20
2022-08-07T23:54:05.665Z,37.05
2022-08-07T23:56:53.618Z,37.45
